This is the latest recevied weather packets stored in our database for station/object OK1KZE-6. If no packets are shown the sender has not sent any weather packets the latest 10 day(s).
| Time | Temp. | Humidity | Pressure | Rain* | Wind** | Luminosity | Snow |
|---|---|---|---|---|---|---|---|
| 1778087108 | 15° C | 72% | 1006.5 hPa | - | - | - | - |
| 1778086808 | 15° C | 77% | 1006.5 hPa | - | - | - | - |
| 1778086509 | 15° C | 77% | 1006.5 hPa | - | - | - | - |
| 1778086208 | 15° C | 79% | 1006.5 hPa | - | - | - | - |
| 1778085908 | 15° C | 79% | 1006.6 hPa | - | - | - | - |
| 1778085608 | 15.56° C | 79% | 1006.8 hPa | - | - | - | - |
| 1778085308 | 15° C | 77% | 1006.7 hPa | - | - | - | - |
| 1778085008 | 16.11° C | 65% | 1006.6 hPa | - | - | - | - |
| 1778084707 | 16.11° C | 67% | 1006.6 hPa | - | - | - | - |
| 1778084408 | 15.56° C | 70% | 1006.6 hPa | - | - | - | - |
| 1778084107 | 14.44° C | 76% | 1007 hPa | - | - | - | - |
| 1778083808 | 15° C | 80% | 1007.2 hPa | - | - | - | - |
| 1778083508 | 14.44° C | 78% | 1007.1 hPa | - | - | - | - |
| 1778083209 | 15° C | 81% | 1007.2 hPa | - | - | - | - |
| 1778082908 | 15° C | 78% | 1007 hPa | - | - | - | - |
| 1778082608 | 14.44° C | 76% | 1006.9 hPa | - | - | - | - |
| 1778082308 | 15° C | 76% | 1006.3 hPa | - | - | - | - |
| 1778082007 | 15° C | 71% | 1007.1 hPa | - | - | - | - |
| 1778081708 | 13.89° C | 79% | 1007.5 hPa | - | - | - | - |
| 1778081408 | 14.44° C | 79% | 1007.8 hPa | - | - | - | - |
| 1778081107 | 15° C | 74% | 1007.9 hPa | - | - | - | - |
| 1778080808 | 15° C | 71% | 1007.8 hPa | - | - | - | - |
| 1778080508 | 15.56° C | 69% | 1007.6 hPa | - | - | - | - |
| 1778080208 | 15.56° C | 69% | 1007.7 hPa | - | - | - | - |
| 1778079908 | 15.56° C | 70% | 1007.4 hPa | - | - | - | - |
* Rain since midnight (hover to see other rain measurements)
** Current wind speed in m/s (hover to see current wind gust speed)